createdAt,value
2019-04-04T00:02:25.045Z,2.07
2019-04-04T00:04:57.782Z,2.13
2019-04-04T00:07:29.067Z,2.10
2019-04-04T00:10:00.148Z,1.99
2019-04-04T00:12:31.173Z,2.06
2019-04-04T00:15:02.014Z,2.19
2019-04-04T00:17:32.947Z,2.21
2019-04-04T00:20:04.973Z,2.27
2019-04-04T00:22:35.875Z,2.19
2019-04-04T00:25:09.670Z,2.20
2019-04-04T00:27:38.757Z,2.12
2019-04-04T00:30:09.385Z,2.36
2019-04-04T00:32:40.323Z,2.28
2019-04-04T00:35:10.955Z,2.34
2019-04-04T00:37:41.687Z,2.38
2019-04-04T00:40:12.528Z,2.28
2019-04-04T00:42:42.951Z,2.34
2019-04-04T00:45:13.889Z,2.34
2019-04-04T00:47:44.725Z,2.51
2019-04-04T00:50:15.454Z,2.46
2019-04-04T00:52:46.292Z,2.30
2019-04-04T00:55:17.132Z,2.16
2019-04-04T00:57:48.250Z,2.26
2019-04-04T01:00:20.235Z,2.30
2019-04-04T01:02:51.282Z,2.43
2019-04-04T01:05:22.040Z,2.34
2019-04-04T01:07:52.777Z,2.37
2019-04-04T01:10:23.676Z,2.37
2019-04-04T01:12:54.513Z,2.16
2019-04-04T01:15:25.425Z,2.21
2019-04-04T01:17:56.183Z,2.13
2019-04-04T01:20:27.020Z,2.24
2019-04-04T01:22:57.753Z,2.26
2019-04-04T01:25:31.825Z,2.15
2019-04-04T01:28:00.760Z,2.02
2019-04-04T01:30:31.699Z,2.11
2019-04-04T01:33:03.826Z,2.06
2019-04-04T01:35:35.746Z,2.25
2019-04-04T01:38:06.563Z,2.26
2019-04-04T01:40:37.296Z,2.22
2019-04-04T01:43:09.342Z,1.88
2019-04-04T01:45:43.715Z,1.99
2019-04-04T01:48:12.978Z,1.93
2019-04-04T01:50:43.918Z,2.16
2019-04-04T01:53:14.648Z,1.96
2019-04-04T01:55:45.715Z,2.10
2019-04-04T01:58:16.524Z,1.90
2019-04-04T02:00:47.481Z,1.70
2019-04-04T02:03:18.397Z,1.73
2019-04-04T02:05:49.136Z,1.75
2019-04-04T02:08:19.969Z,1.95
2019-04-04T02:10:50.707Z,1.95
2019-04-04T02:13:21.535Z,1.98
2019-04-04T02:15:52.425Z,1.97
2019-04-04T02:18:23.977Z,1.89
2019-04-04T02:20:57.551Z,1.88
2019-04-04T02:23:27.185Z,1.72
2019-04-04T02:25:57.729Z,1.68
2019-04-04T02:28:28.923Z,1.73
2019-04-04T02:31:00.056Z,1.83
2019-04-04T02:33:32.463Z,1.70
2019-04-04T02:36:03.004Z,1.64
2019-04-04T02:38:33.721Z,1.64
2019-04-04T02:41:04.632Z,1.75
2019-04-04T02:43:35.463Z,1.58
2019-04-04T02:46:08.656Z,1.48
2019-04-04T02:48:38.392Z,1.44
2019-04-04T02:51:09.269Z,1.62
2019-04-04T02:53:40.160Z,1.56
2019-04-04T02:56:10.977Z,1.57
2019-04-04T02:58:43.788Z,1.48
2019-04-04T03:01:14.386Z,1.50
2019-04-04T03:03:45.321Z,1.54
2019-04-04T03:06:16.160Z,1.64
2019-04-04T03:08:46.896Z,1.56
2019-04-04T03:11:21.192Z,1.56
2019-04-04T03:13:50.006Z,1.63
2019-04-04T03:16:22.573Z,1.61
2019-04-04T03:18:53.621Z,1.44
2019-04-04T03:21:24.439Z,1.35
2019-04-04T03:23:55.019Z,1.46
2019-04-04T03:26:25.446Z,1.57
2019-04-04T03:28:55.884Z,1.56
2019-04-04T03:31:26.659Z,1.60
2019-04-04T03:33:58.364Z,1.63
2019-04-04T03:36:30.719Z,1.65
2019-04-04T03:39:01.428Z,1.60
2019-04-04T03:41:35.839Z,1.63
2019-04-04T03:44:04.337Z,1.66
2019-04-04T03:46:38.701Z,1.67
2019-04-04T03:49:07.335Z,1.82
2019-04-04T03:51:38.293Z,1.75
2019-04-04T03:54:10.850Z,1.87
2019-04-04T03:56:41.510Z,1.93
2019-04-04T03:59:12.111Z,1.99
2019-04-04T04:01:46.497Z,2.00
2019-04-04T04:04:15.130Z,2.01
2019-04-04T04:06:45.887Z,2.07
2019-04-04T04:09:16.789Z,2.10
2019-04-04T04:11:47.722Z,2.24
2019-04-04T04:14:21.611Z,2.29
2019-04-04T04:16:50.661Z,2.29
2019-04-04T04:19:24.175Z,2.32
2019-04-04T04:21:53.637Z,2.33
2019-04-04T04:24:26.735Z,2.37
2019-04-04T04:26:56.654Z,2.46
2019-04-04T04:29:29.894Z,2.49
2019-04-04T04:31:59.431Z,2.67
2019-04-04T04:34:32.911Z,2.80
2019-04-04T04:37:02.435Z,2.99
2019-04-04T04:39:40.799Z,3.27
2019-04-04T04:42:05.538Z,3.87
2019-04-04T04:44:38.748Z,4.30
2019-04-04T04:47:09.259Z,4.40
2019-04-04T04:49:40.100Z,4.37
2019-04-04T04:52:14.207Z,3.87
2019-04-04T04:54:43.569Z,3.57
2019-04-04T04:57:28.445Z,3.86
2019-04-04T04:59:46.716Z,4.35
2019-04-04T05:02:17.759Z,4.43
2019-04-04T05:04:49.618Z,3.88
2019-04-04T05:07:20.360Z,4.24
2019-04-04T05:09:51.198Z,4.68
2019-04-04T05:12:22.275Z,4.65
2019-04-04T05:14:53.170Z,4.83
2019-04-04T05:17:24.106Z,5.38
2019-04-04T05:19:54.947Z,6.07
2019-04-04T05:22:25.774Z,6.37
2019-04-04T05:25:08.047Z,6.01
2019-04-04T05:27:28.895Z,6.54
2019-04-04T05:29:59.721Z,5.89
2019-04-04T05:32:30.447Z,6.66
2019-04-04T05:35:02.083Z,6.58
2019-04-04T05:37:34.115Z,6.56
2019-04-04T05:40:05.940Z,6.30
2019-04-04T05:42:36.756Z,6.21
2019-04-04T05:45:08.123Z,6.17
2019-04-04T05:47:38.952Z,6.26
2019-04-04T05:50:11.353Z,5.68
2019-04-04T05:52:42.244Z,5.29
2019-04-04T05:55:12.995Z,5.04
2019-04-04T05:57:43.935Z,4.79
2019-04-04T06:00:15.491Z,4.78
2019-04-04T06:02:46.339Z,5.14
2019-04-04T06:05:17.482Z,5.32
2019-04-04T06:07:48.197Z,5.39
2019-04-04T06:10:20.381Z,5.37
2019-04-04T06:12:51.198Z,5.52
2019-04-04T06:15:21.927Z,5.77
2019-04-04T06:17:53.272Z,6.19
2019-04-04T06:20:24.014Z,5.95
2019-04-04T06:22:54.969Z,6.21
2019-04-04T06:25:26.100Z,6.27
2019-04-04T06:27:56.936Z,6.31
2019-04-04T06:30:27.875Z,6.63
2019-04-04T06:32:58.717Z,6.58
2019-04-04T06:35:29.539Z,6.65
2019-04-04T06:38:00.479Z,6.79
2019-04-04T06:40:31.423Z,6.65
2019-04-04T06:43:03.841Z,6.50
2019-04-04T06:45:34.628Z,6.58
2019-04-04T06:48:05.477Z,6.91
2019-04-04T06:50:39.215Z,6.62
2019-04-04T06:53:08.476Z,7.01
2019-04-04T06:55:40.275Z,7.12
2019-04-04T06:58:10.964Z,7.08
2019-04-04T07:00:42.340Z,7.20
2019-04-04T07:03:12.841Z,7.42
2019-04-04T07:05:43.669Z,7.81
2019-04-04T07:08:15.204Z,7.67
2019-04-04T07:10:57.402Z,7.51
2019-04-04T07:13:21.929Z,7.26
2019-04-04T07:16:05.470Z,7.16
2019-04-04T07:18:23.276Z,7.15
2019-04-04T07:20:54.001Z,7.41
2019-04-04T07:23:27.360Z,7.49
2019-04-04T07:25:57.018Z,7.61
2019-04-04T07:28:30.710Z,7.78
2019-04-04T07:31:01.739Z,7.78
2019-04-04T07:33:33.106Z,7.69
2019-04-04T07:36:03.945Z,7.74
2019-04-04T07:38:35.121Z,7.80
2019-04-04T07:41:07.893Z,7.68
2019-04-04T07:43:39.491Z,7.49
2019-04-04T07:46:16.795Z,7.59
2019-04-04T07:48:43.039Z,7.78
2019-04-04T07:51:13.976Z,7.93
2019-04-04T07:53:44.806Z,7.82
2019-04-04T07:56:15.658Z,7.80
2019-04-04T07:58:46.370Z,7.66
2019-04-04T08:01:17.312Z,7.68
2019-04-04T08:03:48.257Z,7.75
2019-04-04T08:06:19.604Z,7.70
2019-04-04T08:08:50.335Z,7.98
2019-04-04T08:11:21.180Z,8.12
2019-04-04T08:13:52.216Z,8.46
2019-04-04T08:16:23.051Z,8.34
2019-04-04T08:18:54.101Z,8.27
2019-04-04T08:21:25.369Z,8.27
2019-04-04T08:23:56.067Z,8.31
2019-04-04T08:26:26.896Z,8.27
2019-04-04T08:28:57.840Z,8.34
2019-04-04T08:31:28.675Z,8.24
2019-04-04T08:33:59.414Z,8.15
2019-04-04T08:36:30.167Z,8.20
2019-04-04T08:39:01.087Z,8.44
2019-04-04T08:41:31.919Z,8.38
2019-04-04T08:44:02.758Z,8.45
2019-04-04T08:46:33.484Z,8.34
2019-04-04T08:49:04.224Z,8.44
2019-04-04T08:51:35.065Z,8.59
2019-04-04T08:54:05.895Z,8.57
2019-04-04T08:56:37.698Z,8.36
2019-04-04T08:59:08.387Z,8.43
2019-04-04T09:01:39.327Z,8.45
2019-04-04T09:04:11.898Z,8.34
2019-04-04T09:06:42.478Z,8.11
2019-04-04T09:09:13.374Z,8.37
2019-04-04T09:11:44.305Z,8.07
2019-04-04T09:14:15.149Z,8.16
2019-04-04T09:16:45.901Z,8.51
2019-04-04T09:19:16.702Z,8.73
2019-04-04T09:21:47.649Z,8.89
2019-04-04T09:24:18.481Z,8.77
2019-04-04T09:26:49.013Z,8.62
2019-04-04T09:29:20.051Z,8.74
2019-04-04T09:31:50.994Z,8.92
2019-04-04T09:34:21.957Z,8.79
2019-04-04T09:36:53.898Z,8.65
2019-04-04T09:39:24.639Z,8.66
2019-04-04T09:41:55.566Z,8.57
2019-04-04T09:44:26.521Z,8.73
2019-04-04T09:47:05.282Z,8.72
2019-04-04T09:49:29.883Z,8.74
2019-04-04T09:52:03.252Z,8.91
2019-04-04T09:54:33.320Z,8.88
2019-04-04T09:57:04.282Z,8.99
2019-04-04T09:59:35.311Z,8.89
2019-04-04T10:02:06.904Z,8.87
2019-04-04T10:04:37.696Z,8.77
2019-04-04T10:07:08.244Z,8.94
2019-04-04T10:09:41.729Z,9.04
2019-04-04T10:12:12.351Z,8.96
2019-04-04T10:14:43.394Z,8.94
2019-04-04T10:17:14.077Z,9.12
2019-04-04T10:19:46.395Z,9.26
2019-04-04T10:22:17.238Z,9.12
2019-04-04T10:24:48.074Z,9.12
2019-04-04T10:27:19.049Z,9.22
2019-04-04T10:29:49.749Z,9.21
2019-04-04T10:32:20.172Z,8.96
2019-04-04T10:34:50.948Z,9.19
2019-04-04T10:37:21.865Z,9.03
2019-04-04T10:39:52.673Z,9.12
2019-04-04T10:42:23.519Z,9.29
2019-04-04T10:44:54.273Z,9.48
2019-04-04T10:47:25.184Z,9.53
2019-04-04T10:49:58.436Z,9.46
2019-04-04T10:52:28.294Z,9.51
2019-04-04T10:55:01.333Z,9.45
2019-04-04T10:57:31.809Z,9.31
2019-04-04T11:00:03.363Z,9.37
2019-04-04T11:02:34.201Z,9.54
2019-04-04T11:05:06.373Z,9.72
2019-04-04T11:07:37.308Z,9.83
2019-04-04T11:10:08.780Z,9.85
2019-04-04T11:12:39.692Z,9.82
2019-04-04T11:15:12.263Z,9.75
2019-04-04T11:17:45.863Z,9.64
2019-04-04T11:20:16.704Z,9.73
2019-04-04T11:22:47.542Z,9.79
2019-04-04T11:25:18.369Z,9.39
2019-04-04T11:27:49.240Z,9.54
2019-04-04T11:30:19.633Z,9.54
2019-04-04T11:32:50.455Z,9.44
2019-04-04T11:35:21.509Z,9.41
2019-04-04T11:37:52.253Z,9.70
2019-04-04T11:40:23.082Z,9.93
2019-04-04T11:42:53.828Z,9.79
2019-04-04T11:45:24.345Z,9.78
2019-04-04T11:47:54.934Z,9.55
2019-04-04T11:50:25.715Z,9.72
2019-04-04T11:52:56.647Z,9.63
2019-04-04T11:55:27.583Z,9.54
2019-04-04T11:57:58.523Z,9.66
2019-04-04T12:00:33.685Z,9.71
2019-04-04T12:03:04.508Z,9.66
2019-04-04T12:05:35.439Z,9.86
2019-04-04T12:08:06.280Z,9.75
2019-04-04T12:10:37.104Z,9.88
2019-04-04T12:13:07.952Z,9.91
2019-04-04T12:15:38.778Z,9.96
2019-04-04T12:18:09.613Z,10.03
2019-04-04T12:20:43.545Z,9.92
2019-04-04T12:23:14.060Z,9.95
2019-04-04T12:25:44.475Z,10.10
2019-04-04T12:28:15.418Z,10.17
2019-04-04T12:30:46.147Z,10.01
2019-04-04T12:33:17.092Z,10.02
2019-04-04T12:35:47.821Z,10.17
2019-04-04T12:38:18.866Z,10.14
2019-04-04T12:40:49.814Z,10.00
2019-04-04T12:43:20.643Z,10.07
2019-04-04T12:45:51.467Z,10.15
2019-04-04T12:48:22.410Z,10.22
2019-04-04T12:50:53.347Z,10.50
2019-04-04T12:53:24.189Z,10.49
2019-04-04T12:55:54.917Z,10.61
2019-04-04T12:58:25.752Z,10.28
2019-04-04T13:00:56.591Z,10.12
2019-04-04T13:03:27.156Z,10.09
2019-04-04T13:05:57.954Z,10.17
2019-04-04T13:08:30.608Z,10.11
2019-04-04T13:11:00.882Z,10.26
2019-04-04T13:13:31.792Z,10.15
2019-04-04T13:16:02.631Z,10.14
2019-04-04T13:18:33.569Z,10.30
2019-04-04T13:21:04.506Z,10.18
2019-04-04T13:23:35.245Z,10.20
2019-04-04T13:26:06.177Z,10.06
2019-04-04T13:28:37.021Z,10.14
2019-04-04T13:31:07.874Z,10.06
2019-04-04T13:33:38.695Z,10.14
2019-04-04T13:36:09.623Z,10.07
2019-04-04T13:38:40.356Z,9.95
2019-04-04T13:41:21.282Z,10.00
2019-04-04T13:43:43.291Z,10.16
2019-04-04T13:46:14.014Z,10.10
2019-04-04T13:48:44.834Z,9.89
2019-04-04T13:51:15.647Z,10.01
2019-04-04T13:53:49.993Z,10.02
2019-04-04T13:56:20.508Z,10.08
2019-04-04T13:58:51.445Z,10.15
2019-04-04T14:01:25.183Z,10.20
2019-04-04T14:03:54.562Z,10.30
2019-04-04T14:06:25.297Z,10.30
2019-04-04T14:08:56.126Z,10.23
2019-04-04T14:11:27.065Z,10.15
2019-04-04T14:13:59.533Z,10.05
2019-04-04T14:16:30.574Z,10.00
2019-04-04T14:19:01.415Z,10.01
2019-04-04T14:21:32.352Z,9.85
2019-04-04T14:24:12.935Z,9.70
2019-04-04T14:26:35.871Z,9.67
2019-04-04T14:29:06.599Z,9.61
2019-04-04T14:31:37.534Z,9.62
2019-04-04T14:34:11.313Z,9.72
2019-04-04T14:36:40.545Z,9.70
2019-04-04T14:39:11.378Z,9.60
2019-04-04T14:41:42.325Z,9.55
2019-04-04T14:44:15.514Z,9.54
2019-04-04T14:46:45.664Z,9.48
2019-04-04T14:49:16.575Z,9.42
2019-04-04T14:51:48.324Z,9.38
2019-04-04T14:54:18.661Z,9.34
2019-04-04T14:56:49.885Z,9.32
2019-04-04T14:59:20.650Z,9.35
2019-04-04T15:01:51.482Z,9.33
2019-04-04T15:04:22.198Z,9.14
2019-04-04T15:06:52.926Z,9.00
2019-04-04T15:09:23.678Z,9.04
2019-04-04T15:11:54.503Z,9.15
2019-04-04T15:14:25.339Z,9.25
2019-04-04T15:16:56.170Z,9.29
2019-04-04T15:19:27.004Z,9.24
2019-04-04T15:21:57.737Z,9.21
2019-04-04T15:24:28.677Z,9.21
2019-04-04T15:26:59.513Z,9.23
2019-04-04T15:29:30.659Z,9.12
2019-04-04T15:32:01.606Z,9.08
2019-04-04T15:34:31.993Z,9.03
2019-04-04T15:37:02.855Z,9.05
2019-04-04T15:42:46.850Z,9.08
2019-04-04T15:45:17.453Z,8.88
2019-04-04T15:47:47.917Z,8.88
2019-04-04T15:50:18.817Z,8.63
2019-04-04T15:52:49.760Z,8.41
2019-04-04T15:55:20.288Z,8.51
2019-04-04T15:57:51.174Z,8.50
2019-04-04T16:00:22.059Z,8.54
2019-04-04T16:02:53.064Z,8.58
2019-04-04T16:05:23.963Z,8.56
2019-04-04T16:07:54.867Z,8.43
2019-04-04T16:10:25.815Z,8.34
2019-04-04T16:12:56.657Z,8.23
2019-04-04T16:15:27.508Z,8.10
2019-04-04T16:18:01.104Z,7.92
2019-04-04T16:20:30.435Z,7.98
2019-04-04T16:23:00.914Z,8.03
2019-04-04T16:25:31.543Z,7.94
2019-04-04T16:28:02.277Z,7.92
2019-04-04T16:30:33.007Z,7.82
2019-04-04T16:33:03.637Z,7.77
2019-04-04T16:35:34.592Z,7.69
2019-04-04T16:38:05.419Z,7.71
2019-04-04T16:40:35.845Z,7.48
2019-04-04T16:43:06.692Z,7.39
2019-04-04T16:45:37.525Z,7.19
2019-04-04T16:48:08.282Z,7.22
2019-04-04T16:50:38.775Z,7.10
2019-04-04T16:53:09.722Z,7.37
2019-04-04T16:55:41.167Z,7.36
2019-04-04T16:58:13.641Z,7.35
2019-04-04T17:00:44.390Z,7.41
2019-04-04T17:03:15.316Z,7.49
2019-04-04T17:05:45.942Z,7.33
2019-04-04T17:08:16.782Z,7.15
2019-04-04T17:10:47.622Z,7.02
2019-04-04T17:13:18.463Z,7.22
2019-04-04T17:15:49.006Z,7.41
2019-04-04T17:18:19.839Z,7.49
2019-04-04T17:20:52.809Z,7.29
2019-04-04T17:23:23.922Z,7.49
2019-04-04T17:25:54.440Z,7.41
2019-04-04T17:28:25.105Z,7.35
2019-04-04T17:30:56.041Z,7.28
2019-04-04T17:33:27.404Z,7.02
2019-04-04T17:35:58.325Z,7.13
2019-04-04T17:38:29.564Z,7.24
2019-04-04T17:41:00.311Z,7.08
2019-04-04T17:43:31.294Z,6.94
2019-04-04T17:46:02.235Z,6.81
2019-04-04T17:48:33.535Z,6.87
2019-04-04T17:51:04.483Z,6.66
2019-04-04T17:53:35.474Z,6.78
2019-04-04T17:56:06.391Z,6.88
2019-04-04T17:58:39.546Z,6.87
2019-04-04T18:01:12.176Z,6.89
2019-04-04T18:03:42.642Z,6.72
2019-04-04T18:06:13.690Z,6.71
2019-04-04T18:08:44.627Z,6.46
2019-04-04T18:11:15.579Z,6.40
2019-04-04T18:13:46.092Z,6.29
2019-04-04T18:16:17.029Z,6.28
2019-04-04T18:18:47.869Z,6.18
2019-04-04T18:21:18.714Z,6.21
2019-04-04T18:23:49.449Z,6.50
2019-04-04T18:26:20.329Z,6.23
2019-04-04T18:28:51.130Z,6.20
2019-04-04T18:31:21.939Z,6.22
2019-04-04T18:33:52.713Z,5.99
2019-04-04T18:36:23.611Z,5.95
2019-04-04T18:38:54.448Z,5.85
2019-04-04T18:41:25.307Z,5.67
2019-04-04T18:43:56.124Z,5.56
2019-04-04T18:46:26.852Z,5.56
2019-04-04T18:48:59.128Z,6.10
2019-04-04T18:51:30.064Z,5.97
2019-04-04T18:54:01.002Z,6.09
2019-04-04T18:56:31.730Z,6.04
2019-04-04T18:59:02.781Z,5.87
2019-04-04T19:01:33.612Z,5.96
2019-04-04T19:04:04.351Z,6.06
2019-04-04T19:06:35.330Z,5.90
2019-04-04T19:09:14.973Z,5.83
2019-04-04T19:11:42.387Z,5.87
2019-04-04T19:14:12.912Z,5.97
2019-04-04T19:16:43.643Z,5.65
2019-04-04T19:19:14.489Z,5.70
2019-04-04T19:21:45.326Z,5.64
2019-04-04T19:24:15.889Z,5.70
2019-04-04T19:26:46.574Z,5.72
2019-04-04T19:29:17.719Z,5.60
2019-04-04T19:31:48.251Z,5.60
2019-04-04T19:34:19.191Z,5.46
2019-04-04T19:36:50.249Z,5.55
2019-04-04T19:39:24.039Z,5.58
2019-04-04T19:41:54.566Z,5.56
2019-04-04T19:44:25.509Z,5.48
2019-04-04T19:46:56.352Z,5.42
2019-04-04T19:49:27.292Z,5.41
2019-04-04T19:51:58.118Z,5.30
2019-04-04T19:54:29.054Z,5.26
2019-04-04T19:57:00.227Z,5.27
2019-04-04T19:59:30.947Z,5.39
2019-04-04T20:02:01.717Z,5.78
2019-04-04T20:04:32.501Z,6.16
2019-04-04T20:07:04.362Z,6.02
2019-04-04T20:09:35.202Z,5.85
2019-04-04T20:12:06.028Z,5.69
2019-04-04T20:14:36.870Z,5.54
2019-04-04T20:17:07.715Z,5.49
2019-04-04T20:19:38.538Z,5.16
2019-04-04T20:22:09.374Z,5.00
2019-04-04T20:24:40.322Z,4.81
2019-04-04T20:27:11.254Z,4.85
2019-04-04T20:29:42.188Z,4.80
2019-04-04T20:32:13.230Z,4.74
2019-04-04T20:34:44.178Z,4.76
2019-04-04T20:37:15.007Z,4.77
2019-04-04T20:39:45.946Z,4.61
2019-04-04T20:42:16.782Z,4.52
2019-04-04T20:44:47.504Z,4.33
2019-04-04T20:47:18.344Z,4.53
2019-04-04T20:49:49.289Z,4.41
2019-04-04T20:52:20.045Z,4.42
2019-04-04T20:54:51.066Z,4.35
2019-04-04T20:57:21.800Z,4.27
2019-04-04T20:59:52.937Z,4.32
2019-04-04T21:02:23.779Z,4.19
2019-04-04T21:04:54.717Z,4.10
2019-04-04T21:07:28.825Z,4.02
2019-04-04T21:09:59.769Z,4.12
2019-04-04T21:12:30.707Z,4.00
2019-04-04T21:15:01.536Z,3.95
2019-04-04T21:17:32.475Z,3.88
2019-04-04T21:20:03.333Z,3.82
2019-04-04T21:22:34.042Z,3.57
2019-04-04T21:25:05.333Z,3.31
2019-04-04T21:27:38.382Z,3.20
2019-04-04T21:30:08.806Z,3.60
2019-04-04T21:32:39.537Z,3.86
2019-04-04T21:35:10.375Z,3.89
2019-04-04T21:37:41.217Z,3.77
2019-04-04T21:40:12.044Z,3.63
2019-04-04T21:42:42.879Z,3.68
2019-04-04T21:45:15.253Z,3.39
2019-04-04T21:47:46.191Z,3.21
2019-04-04T21:50:16.827Z,3.12
2019-04-04T21:52:47.459Z,2.93
2019-04-04T21:55:18.431Z,2.97
2019-04-04T21:57:48.927Z,2.99
2019-04-04T22:00:19.965Z,2.86
2019-04-04T22:02:50.601Z,2.93
2019-04-04T22:05:21.538Z,2.86
2019-04-04T22:07:52.372Z,2.64
2019-04-04T22:10:23.321Z,2.54
2019-04-04T22:12:54.148Z,2.52
2019-04-04T22:15:24.985Z,2.66
2019-04-04T22:17:55.920Z,2.63
2019-04-04T22:20:26.762Z,2.60
2019-04-04T22:22:57.472Z,2.59
2019-04-04T22:25:28.427Z,2.65
2019-04-04T22:27:59.264Z,2.56
2019-04-04T22:30:30.304Z,2.52
2019-04-04T22:33:01.865Z,2.72
2019-04-04T22:35:32.685Z,2.59
2019-04-04T22:38:03.529Z,2.67
2019-04-04T22:40:34.368Z,2.49
2019-04-04T22:43:05.204Z,2.35
2019-04-04T22:45:36.401Z,2.34
2019-04-04T22:48:07.082Z,2.37
2019-04-04T22:50:37.706Z,2.66
2019-04-04T22:53:08.539Z,2.71
2019-04-04T22:55:39.375Z,2.72
2019-04-04T22:58:11.644Z,2.81
2019-04-04T23:00:42.385Z,2.63
2019-04-04T23:03:13.433Z,2.52
2019-04-04T23:05:44.152Z,2.45
2019-04-04T23:08:14.890Z,2.39
2019-04-04T23:10:45.521Z,2.47
2019-04-04T23:13:16.365Z,2.51
2019-04-04T23:15:47.189Z,2.44
2019-04-04T23:18:18.134Z,2.33
2019-04-04T23:20:49.114Z,2.30
2019-04-04T23:23:19.810Z,2.48
2019-04-04T23:25:50.742Z,2.63
2019-04-04T23:28:21.675Z,2.57
2019-04-04T23:30:52.619Z,2.57
2019-04-04T23:33:23.456Z,2.49
2019-04-04T23:35:54.216Z,2.31
2019-04-04T23:38:24.918Z,2.13
2019-04-04T23:40:55.869Z,1.98
2019-04-04T23:43:26.688Z,1.97
2019-04-04T23:45:58.156Z,1.98
2019-04-04T23:48:28.671Z,1.88
2019-04-04T23:50:59.611Z,1.94
2019-04-04T23:53:30.144Z,2.14
2019-04-04T23:56:01.181Z,2.14
2019-04-04T23:58:32.223Z,2.02
